createdAt,value
2017-09-07T00:00:34.174Z,100687.46
2017-09-07T00:03:02.640Z,100682.29
2017-09-07T00:05:31.132Z,100684.48
2017-09-07T00:07:59.611Z,100684.14
2017-09-07T00:10:28.087Z,100682.93
2017-09-07T00:12:56.540Z,100687.28
2017-09-07T00:15:24.972Z,100683.06
2017-09-07T00:17:53.446Z,100685.27
2017-09-07T00:20:21.918Z,100682.80
2017-09-07T00:23:24.396Z,100690.94
2017-09-07T00:25:52.841Z,100686.27
2017-09-07T00:28:22.055Z,100676.88
2017-09-07T00:30:51.238Z,100685.08
2017-09-07T00:33:20.464Z,100679.08
2017-09-07T00:35:48.956Z,100671.52
2017-09-07T00:38:17.430Z,100681.31
2017-09-07T00:40:45.925Z,100684.36
2017-09-07T00:43:14.402Z,100681.89
2017-09-07T00:45:42.831Z,100682.13
2017-09-07T00:48:11.293Z,100680.44
2017-09-07T00:50:39.761Z,100677.59
2017-09-07T00:53:08.211Z,100675.29
2017-09-07T00:55:36.631Z,100680.01
2017-09-07T00:58:05.096Z,100683.30
2017-09-07T01:00:33.519Z,100676.38
2017-09-07T01:03:01.968Z,100677.67
2017-09-07T01:05:30.444Z,100676.30
2017-09-07T01:07:58.902Z,100675.23
2017-09-07T01:10:27.328Z,100675.23
2017-09-07T01:12:55.808Z,100675.38
2017-09-07T01:15:24.262Z,100679.26
2017-09-07T01:17:52.697Z,100671.22
2017-09-07T01:20:21.134Z,100673.31
2017-09-07T01:22:49.606Z,100666.88
2017-09-07T01:25:18.047Z,100669.31
2017-09-07T01:27:47.284Z,100666.31
2017-09-07T01:30:15.723Z,100674.17
2017-09-07T01:32:44.159Z,100672.52
2017-09-07T01:35:12.626Z,100671.41
2017-09-07T01:37:41.051Z,100676.94
2017-09-07T01:40:09.501Z,100680.09
2017-09-07T01:42:37.928Z,100675.80
2017-09-07T01:45:06.443Z,100673.16
2017-09-07T01:47:34.863Z,100681.79
2017-09-07T01:50:03.308Z,100680.44
2017-09-07T01:52:31.796Z,100675.72
2017-09-07T01:55:00.264Z,100683.27
2017-09-07T01:57:28.755Z,100678.08
2017-09-07T01:59:57.178Z,100677.70
2017-09-07T02:02:25.619Z,100684.22
2017-09-07T02:04:54.108Z,100690.20
2017-09-07T02:07:22.559Z,100688.44
2017-09-07T02:09:51.752Z,100686.92
2017-09-07T02:12:20.974Z,100683.09
2017-09-07T02:14:49.463Z,100684.77
2017-09-07T02:17:17.912Z,100685.80
2017-09-07T02:19:47.143Z,100687.87
2017-09-07T02:22:15.592Z,100683.00
2017-09-07T02:24:44.835Z,100683.92
2017-09-07T02:27:13.288Z,100686.48
2017-09-07T02:29:42.481Z,100680.44
2017-09-07T02:32:11.693Z,100684.09
2017-09-07T02:34:40.187Z,100686.02
2017-09-07T02:37:08.668Z,100683.60
2017-09-07T02:39:37.152Z,100684.45
2017-09-07T02:42:05.616Z,100684.98
2017-09-07T02:44:34.831Z,100684.98
2017-09-07T02:47:03.271Z,100683.23
2017-09-07T02:49:31.792Z,100683.18
2017-09-07T02:52:00.276Z,100678.30
2017-09-07T02:54:28.704Z,100676.56
2017-09-07T02:56:57.142Z,100677.91
2017-09-07T02:59:25.563Z,100678.77
2017-09-07T03:01:54.099Z,100680.35
2017-09-07T03:04:22.584Z,100682.80
2017-09-07T03:06:51.036Z,100683.38
2017-09-07T03:09:20.284Z,100689.05
2017-09-07T03:11:48.752Z,100687.34
2017-09-07T03:14:17.227Z,100681.77
2017-09-07T03:16:45.713Z,100679.78
2017-09-07T03:19:14.188Z,100683.25
2017-09-07T03:21:42.676Z,100683.86
2017-09-07T03:24:11.152Z,100673.56
2017-09-07T03:26:39.566Z,100679.32
2017-09-07T03:29:08.011Z,100674.98
2017-09-07T03:31:36.495Z,100676.80
2017-09-07T03:34:04.938Z,100678.89
2017-09-07T03:36:33.363Z,100678.88
2017-09-07T03:39:01.824Z,100667.79
2017-09-07T03:41:31.043Z,100668.19
2017-09-07T03:43:59.528Z,100664.00
2017-09-07T03:46:27.955Z,100669.28
2017-09-07T03:48:56.492Z,100668.36
2017-09-07T03:51:24.964Z,100662.50
2017-09-07T03:53:53.446Z,100677.17
2017-09-07T03:56:21.935Z,100679.16
2017-09-07T03:58:50.379Z,100673.17
2017-09-07T04:01:19.573Z,100671.92
2017-09-07T04:03:48.096Z,100679.45
2017-09-07T04:06:16.524Z,100678.98
2017-09-07T04:08:44.969Z,100677.66
2017-09-07T04:11:13.395Z,100678.83
2017-09-07T04:13:41.925Z,100677.21
2017-09-07T04:16:10.403Z,100677.31
2017-09-07T04:18:38.847Z,100678.53
2017-09-07T04:21:07.362Z,100675.59
2017-09-07T04:23:35.843Z,100680.98
2017-09-07T04:26:04.268Z,100675.81
2017-09-07T04:28:32.706Z,100683.05
2017-09-07T04:31:01.195Z,100691.47
2017-09-07T04:33:29.663Z,100686.88
2017-09-07T04:35:58.083Z,100685.63
2017-09-07T04:38:26.530Z,100684.66
2017-09-07T04:40:55.024Z,100690.15
2017-09-07T04:43:23.494Z,100695.23
2017-09-07T04:45:51.988Z,100701.68
2017-09-07T04:48:20.463Z,100696.52
2017-09-07T04:50:48.939Z,100692.13
2017-09-07T04:53:17.427Z,100696.77
2017-09-07T04:55:45.912Z,100696.70
2017-09-07T04:58:14.391Z,100695.38
2017-09-07T05:00:42.876Z,100695.30
2017-09-07T05:03:11.309Z,100698.63
2017-09-07T05:05:39.840Z,100697.40
2017-09-07T05:08:08.319Z,100693.86
2017-09-07T05:10:36.807Z,100708.55
2017-09-07T05:13:05.279Z,100704.97
2017-09-07T05:15:33.728Z,100706.81
2017-09-07T05:18:02.243Z,100707.09
2017-09-07T05:20:30.727Z,100707.09
2017-09-07T05:22:59.202Z,100706.84
2017-09-07T05:25:27.695Z,100707.31
2017-09-07T05:27:56.124Z,100701.23
2017-09-07T05:30:24.659Z,100712.39
2017-09-07T05:32:53.150Z,100711.09
2017-09-07T05:35:21.603Z,100710.96
2017-09-07T05:37:50.796Z,100704.92
2017-09-07T05:40:20.107Z,100702.92
2017-09-07T05:42:49.329Z,100712.78
2017-09-07T05:45:17.780Z,100710.81
2017-09-07T05:47:46.973Z,100714.87
2017-09-07T05:50:16.203Z,100715.70
2017-09-07T05:52:44.622Z,100714.45
2017-09-07T05:55:13.064Z,100714.50
2017-09-07T05:57:41.507Z,100726.92
2017-09-07T06:00:10.744Z,100724.32
2017-09-07T06:02:39.191Z,100727.16
2017-09-07T06:05:08.388Z,100729.33
2017-09-07T06:07:37.626Z,100727.31
2017-09-07T06:10:06.104Z,100719.41
2017-09-07T06:12:34.590Z,100724.31
2017-09-07T06:15:03.020Z,100722.67
2017-09-07T06:17:31.468Z,100726.67
2017-09-07T06:19:59.897Z,100727.89
2017-09-07T06:22:29.108Z,100726.44
2017-09-07T06:24:58.296Z,100724.91
2017-09-07T06:27:27.522Z,100720.92
2017-09-07T06:29:55.939Z,100713.92
2017-09-07T06:32:24.379Z,100729.06
2017-09-07T06:34:52.876Z,100732.66
2017-09-07T06:37:21.320Z,100731.61
2017-09-07T06:39:50.551Z,100738.19
2017-09-07T06:42:19.031Z,100731.61
2017-09-07T06:44:47.455Z,100731.71
2017-09-07T06:47:15.909Z,100725.69
2017-09-07T06:49:44.337Z,100729.25
2017-09-07T06:52:13.576Z,100726.97
2017-09-07T06:54:41.995Z,100735.33
2017-09-07T06:57:10.431Z,100733.85
2017-09-07T06:59:38.856Z,100734.01
2017-09-07T07:02:07.395Z,100738.25
2017-09-07T07:04:35.880Z,100740.59
2017-09-07T07:07:04.363Z,100749.82
2017-09-07T07:09:32.788Z,100753.11
2017-09-07T07:12:01.240Z,100755.97
2017-09-07T07:14:29.709Z,100751.84
2017-09-07T07:16:58.292Z,100748.44
2017-09-07T07:19:26.776Z,100757.00
2017-09-07T07:21:55.251Z,100751.22
2017-09-07T07:24:23.741Z,100759.89
2017-09-07T07:26:52.164Z,100756.93
2017-09-07T07:29:20.704Z,100755.72
2017-09-07T07:31:49.188Z,100760.16
2017-09-07T07:34:17.663Z,100766.89
2017-09-07T07:36:46.159Z,100763.25
2017-09-07T07:39:14.635Z,100763.59
2017-09-07T07:41:43.116Z,100769.50
2017-09-07T07:44:11.587Z,100767.44
2017-09-07T07:46:40.141Z,100765.52
2017-09-07T07:49:08.585Z,100767.76
2017-09-07T07:51:37.008Z,100768.30
2017-09-07T07:54:06.215Z,100765.53
2017-09-07T07:56:35.399Z,100767.77
2017-09-07T07:59:04.615Z,100770.56
2017-09-07T08:01:33.836Z,100765.70
2017-09-07T08:04:02.316Z,100765.48
2017-09-07T08:06:30.800Z,100760.24
2017-09-07T08:08:59.243Z,100770.42
2017-09-07T08:11:28.489Z,100772.74
2017-09-07T08:13:56.968Z,100769.97
2017-09-07T08:16:25.396Z,100770.25
2017-09-07T08:18:53.855Z,100770.97
2017-09-07T08:21:22.308Z,100770.03
2017-09-07T08:23:50.883Z,100773.47
2017-09-07T08:26:19.312Z,100772.87
2017-09-07T08:28:47.741Z,100771.72
2017-09-07T08:31:16.307Z,100774.37
2017-09-07T08:33:45.500Z,100773.13
2017-09-07T08:36:14.719Z,100769.64
2017-09-07T08:38:43.147Z,100783.70
2017-09-07T08:41:11.579Z,100771.76
2017-09-07T08:43:40.763Z,100772.80
2017-09-07T08:46:09.980Z,100775.61
2017-09-07T08:48:38.403Z,100778.97
2017-09-07T08:51:06.957Z,100775.03
2017-09-07T08:53:35.389Z,100773.94
2017-09-07T08:56:03.936Z,100787.66
2017-09-07T08:58:32.404Z,100785.72
2017-09-07T09:01:00.865Z,100786.61
2017-09-07T09:03:30.093Z,100778.80
2017-09-07T09:05:58.553Z,100788.04
2017-09-07T09:08:27.766Z,100782.16
2017-09-07T09:10:56.212Z,100779.92
2017-09-07T09:13:25.439Z,100785.77
2017-09-07T09:15:53.884Z,100784.58
2017-09-07T09:18:23.075Z,100790.14
2017-09-07T09:20:51.512Z,100787.39
2017-09-07T09:23:19.952Z,100788.13
2017-09-07T09:25:49.172Z,100793.48
2017-09-07T09:28:17.600Z,100788.15
2017-09-07T09:30:46.077Z,100791.95
2017-09-07T09:33:14.496Z,100793.04
2017-09-07T09:35:43.727Z,100801.28
2017-09-07T09:38:12.212Z,100788.52
2017-09-07T09:40:40.696Z,100790.66
2017-09-07T09:43:09.143Z,100791.66
2017-09-07T09:45:38.373Z,100790.98
2017-09-07T09:48:06.856Z,100782.77
2017-09-07T09:50:35.284Z,100787.44
2017-09-07T09:53:03.816Z,100784.00
2017-09-07T09:55:32.304Z,100782.89
2017-09-07T09:58:00.752Z,100774.38
2017-09-07T10:00:29.980Z,100782.59
2017-09-07T10:02:58.423Z,100783.69
2017-09-07T10:05:27.660Z,100774.06
2017-09-07T10:07:56.117Z,100784.52
2017-09-07T10:10:25.344Z,100781.38
2017-09-07T10:12:53.828Z,100788.14
2017-09-07T10:15:22.309Z,100785.58
2017-09-07T10:17:50.756Z,100783.42
2017-09-07T10:20:19.988Z,100786.09
2017-09-07T10:22:48.463Z,100785.36
2017-09-07T10:25:16.951Z,100781.21
2017-09-07T10:27:45.435Z,100785.16
2017-09-07T10:30:13.863Z,100782.44
2017-09-07T10:32:42.400Z,100781.27
2017-09-07T10:35:10.871Z,100786.80
2017-09-07T10:37:39.678Z,100780.59
2017-09-07T10:40:08.155Z,100775.59
2017-09-07T10:42:36.612Z,100784.61
2017-09-07T10:45:05.107Z,100777.06
2017-09-07T10:47:33.590Z,100780.02
2017-09-07T10:50:02.080Z,100776.20
2017-09-07T10:52:30.555Z,100773.62
2017-09-07T10:54:59.047Z,100770.88
2017-09-07T10:57:27.476Z,100771.27
2017-09-07T10:59:56.003Z,100781.80
2017-09-07T11:02:24.492Z,100779.27
2017-09-07T11:04:52.940Z,100776.18
2017-09-07T11:07:22.186Z,100775.27
2017-09-07T11:09:50.628Z,100777.74
2017-09-07T11:12:19.851Z,100779.76
2017-09-07T11:14:48.332Z,100768.03
2017-09-07T11:17:16.889Z,100776.44
2017-09-07T11:19:46.215Z,100776.76
2017-09-07T11:22:14.631Z,100773.47
2017-09-07T11:24:43.180Z,100770.39
2017-09-07T11:27:11.613Z,100772.78
2017-09-07T11:29:40.069Z,100780.46
2017-09-07T11:32:08.500Z,100779.09
2017-09-07T11:34:37.829Z,100778.20
2017-09-07T11:37:06.256Z,100787.84
2017-09-07T11:39:34.787Z,100788.03
2017-09-07T11:42:03.212Z,100786.70
2017-09-07T11:44:31.755Z,100788.84
2017-09-07T11:47:00.236Z,100790.83
2017-09-07T11:49:28.688Z,100784.27
2017-09-07T11:51:57.921Z,100790.38
2017-09-07T11:54:26.365Z,100793.50
2017-09-07T11:56:55.595Z,100793.98
2017-09-07T11:59:24.079Z,100796.47
2017-09-07T12:01:52.563Z,100795.37
2017-09-07T12:04:20.983Z,100798.95
2017-09-07T12:06:49.536Z,100797.59
2017-09-07T12:09:17.963Z,100801.94
2017-09-07T12:11:46.408Z,100796.15
2017-09-07T12:14:14.868Z,100797.73
2017-09-07T12:16:43.352Z,100795.81
2017-09-07T12:19:11.781Z,100791.17
2017-09-07T12:21:40.231Z,100797.88
2017-09-07T12:24:08.695Z,100787.52
2017-09-07T12:26:37.139Z,100792.08
2017-09-07T12:29:06.323Z,100791.81
2017-09-07T12:31:34.764Z,100799.80
2017-09-07T12:34:03.192Z,100792.98
2017-09-07T12:36:31.644Z,100792.06
2017-09-07T12:39:00.091Z,100797.26
2017-09-07T12:41:28.580Z,100799.55
2017-09-07T12:43:57.060Z,100797.14
2017-09-07T12:46:25.491Z,100799.78
2017-09-07T12:48:54.023Z,100795.37
2017-09-07T12:51:22.517Z,100796.19
2017-09-07T12:53:50.992Z,100793.18
2017-09-07T12:56:19.431Z,100797.66
2017-09-07T12:58:47.866Z,100797.98
2017-09-07T13:01:16.336Z,100794.20
2017-09-07T13:03:44.807Z,100794.13
2017-09-07T13:06:13.252Z,100795.63
2017-09-07T13:08:41.672Z,100797.53
2017-09-07T13:11:10.159Z,100806.30
2017-09-07T13:13:38.584Z,100802.58
2017-09-07T13:16:07.040Z,100819.55
2017-09-07T13:18:35.495Z,100824.78
2017-09-07T13:21:03.923Z,100835.50
2017-09-07T13:23:32.367Z,100842.05
2017-09-07T13:26:00.791Z,100844.69
2017-09-07T13:28:29.232Z,100850.02
2017-09-07T13:30:57.707Z,100845.05
2017-09-07T13:33:26.162Z,100849.55
2017-09-07T13:35:55.488Z,100844.17
2017-09-07T13:38:23.975Z,100847.09
2017-09-07T13:40:52.403Z,100841.89
2017-09-07T13:43:20.932Z,100837.11
2017-09-07T13:45:49.419Z,100832.58
2017-09-07T13:48:17.861Z,100831.88
2017-09-07T13:50:47.101Z,100821.23
2017-09-07T13:53:15.596Z,100821.98
2017-09-07T13:55:44.064Z,100829.29
2017-09-07T13:58:12.543Z,100830.84
2017-09-07T14:00:40.971Z,100828.47
2017-09-07T14:03:09.424Z,100824.41
2017-09-07T14:05:37.897Z,100825.26
2017-09-07T14:08:06.351Z,100819.13
2017-09-07T14:10:35.539Z,100819.08
2017-09-07T14:13:04.767Z,100817.64
2017-09-07T14:15:33.252Z,100822.06
2017-09-07T14:18:01.705Z,100815.90
2017-09-07T14:20:30.904Z,100817.61
2017-09-07T14:23:00.115Z,100821.47
2017-09-07T14:25:29.319Z,100816.80
2017-09-07T14:27:57.813Z,100819.50
2017-09-07T14:30:26.231Z,100817.86
2017-09-07T14:32:54.661Z,100817.71
2017-09-07T14:35:23.147Z,100819.25
2017-09-07T14:37:51.627Z,100819.94
2017-09-07T14:40:20.116Z,100813.09
2017-09-07T14:42:48.600Z,100814.61
2017-09-07T14:45:17.048Z,100811.98
2017-09-07T14:47:46.240Z,100812.30
2017-09-07T14:50:14.772Z,100814.84
2017-09-07T14:52:43.248Z,100823.98
2017-09-07T14:55:11.723Z,100816.28
2017-09-07T14:57:40.156Z,100817.30
2017-09-07T15:00:08.607Z,100821.77
2017-09-07T15:02:37.067Z,100824.52
2017-09-07T15:05:05.547Z,100825.81
2017-09-07T15:07:33.973Z,100822.13
2017-09-07T15:10:02.423Z,100826.08
2017-09-07T15:12:30.852Z,100822.91
2017-09-07T15:14:59.372Z,100823.23
2017-09-07T15:17:27.855Z,100820.53
2017-09-07T15:19:56.335Z,100822.81
2017-09-07T15:22:24.825Z,100829.19
2017-09-07T15:24:53.271Z,100828.59
2017-09-07T15:27:22.499Z,100826.30
2017-09-07T15:29:50.984Z,100824.95
2017-09-07T15:32:19.469Z,100821.30
2017-09-07T15:34:48.016Z,100826.98
2017-09-07T15:37:17.253Z,100827.64
2017-09-07T15:39:45.767Z,100828.49
2017-09-07T15:42:14.211Z,100819.87
2017-09-07T15:44:42.692Z,100817.73
2017-09-07T15:47:11.135Z,100813.45
2017-09-07T15:49:39.559Z,100817.95
2017-09-07T15:52:08.040Z,100810.38
2017-09-07T15:54:36.520Z,100813.91
2017-09-07T15:57:04.968Z,100810.68
2017-09-07T15:59:34.172Z,100811.95
2017-09-07T16:02:03.405Z,100813.06
2017-09-07T16:04:31.837Z,100814.59
2017-09-07T16:07:00.289Z,100811.82
2017-09-07T16:09:28.712Z,100812.80
2017-09-07T16:11:57.924Z,100807.34
2017-09-07T16:14:27.112Z,100809.38
2017-09-07T16:16:56.443Z,100808.69
2017-09-07T16:19:24.923Z,100810.67
2017-09-07T16:21:53.374Z,100808.69
2017-09-07T16:24:22.567Z,100818.61
2017-09-07T16:26:51.780Z,100822.45
2017-09-07T16:29:20.976Z,100817.27
2017-09-07T16:31:50.351Z,100820.34
2017-09-07T16:34:18.788Z,100820.83
2017-09-07T16:36:47.240Z,100816.13
2017-09-07T16:39:16.436Z,100819.75
2017-09-07T16:41:45.664Z,100819.06
2017-09-07T16:44:14.092Z,100819.00
2017-09-07T16:46:42.643Z,100822.35
2017-09-07T16:49:11.111Z,100823.13
2017-09-07T16:51:39.602Z,100825.45
2017-09-07T16:54:08.046Z,100831.67
2017-09-07T16:56:37.266Z,100834.02
2017-09-07T16:59:05.751Z,100839.65
2017-09-07T17:01:34.197Z,100841.63
2017-09-07T17:04:02.628Z,100835.86
2017-09-07T17:06:31.063Z,100845.54
2017-09-07T17:09:00.305Z,100845.72
2017-09-07T17:11:28.805Z,100848.18
2017-09-07T17:13:57.265Z,100846.48
2017-09-07T17:16:25.751Z,100839.56
2017-09-07T17:18:54.200Z,100838.95
2017-09-07T17:21:23.443Z,100835.95
2017-09-07T17:23:51.908Z,100833.89
2017-09-07T17:26:20.384Z,100834.49
2017-09-07T17:28:48.832Z,100833.07
2017-09-07T17:31:18.073Z,100838.23
2017-09-07T17:33:46.515Z,100838.01
2017-09-07T17:36:15.744Z,100839.70
2017-09-07T17:38:44.242Z,100850.73
2017-09-07T17:41:12.716Z,100851.16
2017-09-07T17:43:41.200Z,100850.77
2017-09-07T17:46:09.680Z,100852.41
2017-09-07T17:48:38.155Z,100848.34
2017-09-07T17:51:06.646Z,100855.95
2017-09-07T17:53:35.095Z,100861.25
2017-09-07T17:56:04.338Z,100861.13
2017-09-07T17:58:32.785Z,100864.50
2017-09-07T18:01:01.220Z,100863.16
2017-09-07T18:03:29.772Z,100868.55
2017-09-07T18:05:58.256Z,100863.37
2017-09-07T18:08:26.744Z,100880.85
2017-09-07T18:10:55.177Z,100875.30
2017-09-07T18:13:24.371Z,100880.52
2017-09-07T18:15:52.825Z,100885.27
2017-09-07T18:18:21.285Z,100886.66
2017-09-07T18:20:49.740Z,100896.44
2017-09-07T18:23:18.240Z,100893.02
2017-09-07T18:25:46.724Z,100895.70
2017-09-07T18:28:15.153Z,100895.59
2017-09-07T18:30:43.679Z,100899.33
2017-09-07T18:33:12.172Z,100899.53
2017-09-07T18:35:40.620Z,100900.83
2017-09-07T18:38:09.816Z,100899.86
2017-09-07T18:40:39.048Z,100903.20
2017-09-07T18:43:07.477Z,100907.05
2017-09-07T18:45:35.933Z,100911.82
2017-09-07T18:48:04.369Z,100914.69
2017-09-07T18:50:33.574Z,100921.28
2017-09-07T18:53:02.765Z,100919.80
2017-09-07T18:55:31.977Z,100919.77
2017-09-07T18:58:00.485Z,100913.52
2017-09-07T19:00:28.937Z,100923.46
2017-09-07T19:02:58.123Z,100924.91
2017-09-07T19:05:27.336Z,100926.02
2017-09-07T19:07:56.548Z,100920.25
2017-09-07T19:10:24.987Z,100923.62
2017-09-07T19:12:54.228Z,100917.67
2017-09-07T19:15:22.656Z,100917.80
2017-09-07T19:17:51.187Z,100924.22
2017-09-07T19:20:19.607Z,100920.83
2017-09-07T19:22:48.055Z,100924.75
2017-09-07T19:25:16.474Z,100925.70
2017-09-07T19:27:45.020Z,100924.10
2017-09-07T19:30:13.499Z,100931.08
2017-09-07T19:32:41.979Z,100929.13
2017-09-07T19:35:10.464Z,100934.94
2017-09-07T19:37:38.945Z,100934.71
2017-09-07T19:40:07.428Z,100928.50
2017-09-07T19:42:35.872Z,100935.16
2017-09-07T19:45:05.064Z,100931.28
2017-09-07T19:47:33.513Z,100932.23
2017-09-07T19:50:01.940Z,100929.89
2017-09-07T19:52:31.147Z,100934.66
2017-09-07T19:55:00.339Z,100936.39
2017-09-07T19:57:29.547Z,100934.47
2017-09-07T19:59:58.049Z,100934.14
2017-09-07T20:02:26.497Z,100925.95
2017-09-07T20:04:55.723Z,100930.39
2017-09-07T20:07:24.177Z,100931.56
2017-09-07T20:09:53.368Z,100927.38
2017-09-07T20:12:22.606Z,100927.48
2017-09-07T20:14:51.084Z,100925.34
2017-09-07T20:17:19.503Z,100928.54
2017-09-07T20:19:47.939Z,100928.27
2017-09-07T20:22:16.426Z,100926.98
2017-09-07T20:24:44.911Z,100927.58
2017-09-07T20:27:13.403Z,100933.34
2017-09-07T20:29:41.847Z,100930.30
2017-09-07T20:32:11.066Z,100934.56
2017-09-07T20:34:40.364Z,100931.28
2017-09-07T20:37:08.799Z,100932.15
2017-09-07T20:39:37.339Z,100936.20
2017-09-07T20:42:05.823Z,100929.23
2017-09-07T20:44:34.314Z,100932.30
2017-09-07T20:47:02.754Z,100929.70
2017-09-07T20:49:31.208Z,100929.70
2017-09-07T20:51:59.652Z,100931.87
2017-09-07T20:54:28.100Z,100930.62
2017-09-07T20:56:57.331Z,100931.55
2017-09-07T20:59:25.781Z,100929.04
2017-09-07T21:01:54.980Z,100923.89
2017-09-07T21:04:24.192Z,100922.68
2017-09-07T21:06:53.379Z,100925.34
2017-09-07T21:09:22.603Z,100915.47
2017-09-07T21:11:51.027Z,100917.72
2017-09-07T21:14:19.487Z,100907.87
2017-09-07T21:16:47.939Z,100915.23
2017-09-07T21:19:16.437Z,100916.99
2017-09-07T21:21:44.884Z,100914.56
2017-09-07T21:24:14.115Z,100919.80
2017-09-07T21:26:42.556Z,100914.98
2017-09-07T21:29:11.800Z,100912.86
2017-09-07T21:31:40.247Z,100911.20
2017-09-07T21:34:09.471Z,100910.72
2017-09-07T21:36:37.920Z,100904.83
2017-09-07T21:39:07.107Z,100910.39
2017-09-07T21:41:35.639Z,100911.73
2017-09-07T21:44:04.124Z,100905.70
2017-09-07T21:46:32.603Z,100908.73
2017-09-07T21:49:01.088Z,100903.97
2017-09-07T21:51:29.538Z,100902.34
2017-09-07T21:53:58.768Z,100900.67
2017-09-07T21:56:27.217Z,100898.93
2017-09-07T21:58:56.452Z,100892.50
2017-09-07T22:01:24.932Z,100896.02
2017-09-07T22:03:53.352Z,100901.69
2017-09-07T22:06:21.791Z,100894.37
2017-09-07T22:08:50.276Z,100893.08
2017-09-07T22:11:18.756Z,100887.10
2017-09-07T22:13:47.245Z,100885.83
2017-09-07T22:16:15.720Z,100885.51
2017-09-07T22:18:44.147Z,100885.27
2017-09-07T22:21:12.583Z,100890.48
2017-09-07T22:23:41.008Z,100882.69
2017-09-07T22:26:09.448Z,100889.23
2017-09-07T22:28:37.920Z,100889.23
2017-09-07T22:31:06.409Z,100890.13
2017-09-07T22:33:34.892Z,100886.80
2017-09-07T22:36:03.376Z,100883.34
2017-09-07T22:38:31.803Z,100889.38
2017-09-07T22:41:00.232Z,100889.45
2017-09-07T22:43:28.676Z,100887.33
2017-09-07T22:45:57.916Z,100880.83
2017-09-07T22:48:26.364Z,100878.67
2017-09-07T22:50:55.596Z,100874.36
2017-09-07T22:53:24.072Z,100870.09
2017-09-07T22:55:52.556Z,100868.39
2017-09-07T22:58:20.999Z,100864.09
2017-09-07T23:00:49.434Z,100862.42
2017-09-07T23:03:17.904Z,100862.00
2017-09-07T23:05:46.333Z,100866.70
2017-09-07T23:08:14.768Z,100871.97
2017-09-07T23:10:43.243Z,100868.11
2017-09-07T23:13:11.729Z,100866.00
2017-09-07T23:15:40.211Z,100865.52
2017-09-07T23:18:08.650Z,100863.00
2017-09-07T23:20:37.171Z,100859.98
2017-09-07T23:23:05.656Z,100858.72
2017-09-07T23:25:34.081Z,100857.03
2017-09-07T23:28:02.681Z,100861.36
2017-09-07T23:30:31.204Z,100854.06
2017-09-07T23:32:59.688Z,100858.45
2017-09-07T23:35:28.172Z,100862.05
2017-09-07T23:37:56.620Z,100855.64
2017-09-07T23:40:25.813Z,100856.07
2017-09-07T23:42:55.049Z,100847.97
2017-09-07T23:45:23.467Z,100840.28
2017-09-07T23:47:52.003Z,100844.95
2017-09-07T23:50:20.482Z,100844.44
2017-09-07T23:52:48.902Z,100841.38
2017-09-07T23:55:17.472Z,100842.02
2017-09-07T23:57:45.935Z,100840.64
